Weather at Kılıçtutan Garrison Helipad

Public forecast

Using degrees Celsius for public forecast. Weather courtesy of forecast.io.

Closest aviation weather report (METAR) to Kılıçtutan Garrison Helipad

Closest report is Hatay Airport, 24.2 nm (44.9 km) N.

2024/07/22 22:50 (retrieved 42 minutes ago)

LTDA 222250Z 24014KT 220V290 CAVOK 29/24 Q1003 NOSIG

Closest aviation forecast (TAF) to Kılıçtutan Garrison Helipad

Closest forecast is Hmeimim Air Base, 36.2 nm (67.1 km) SSW.

2024/07/22 18:30 (retrieved 5 hours ago)

TAF OSLK 221700Z 2218/2318 17010G20KT 9999 FEW030 TEMPO 2306/2318 22012G22KT 9999 SCT030